createdAt,value
2023-02-26T06:10:33.995Z,15.65
2023-02-26T06:13:01.348Z,24.95
2023-02-26T06:15:28.276Z,14.75
2023-02-26T06:17:55.203Z,10.43
2023-02-26T06:20:22.148Z,26.52
2023-02-26T06:22:49.118Z,15.65
2023-02-26T06:25:16.052Z,12.93
2023-02-26T06:27:43.044Z,14.52
2023-02-26T06:30:10.702Z,18.90
2023-02-26T06:32:40.704Z,16.27
2023-02-26T06:35:08.267Z,17.92
2023-02-26T06:37:35.251Z,16.77
2023-02-26T06:40:02.312Z,14.30
2023-02-26T06:42:29.252Z,16.30
2023-02-26T06:44:57.307Z,19.10
2023-02-26T06:47:25.058Z,18.48
2023-02-26T06:49:52.146Z,16.80
2023-02-26T06:52:19.070Z,10.20
2023-02-26T06:54:46.039Z,13.40
2023-02-26T06:57:12.901Z,17.60
2023-02-26T06:59:39.912Z,16.83
2023-02-26T07:02:07.157Z,18.17
2023-02-26T07:04:34.044Z,14.57
2023-02-26T07:07:00.948Z,21.75
2023-02-26T07:09:27.840Z,18.42
2023-02-26T07:11:54.674Z,17.67
2023-02-26T07:14:21.566Z,10.60
2023-02-26T07:16:48.496Z,12.50
2023-02-26T07:19:15.585Z,17.05
2023-02-26T07:21:42.445Z,17.10
2023-02-26T07:24:09.495Z,15.55
2023-02-26T07:26:36.506Z,15.00
2023-02-26T07:29:03.464Z,12.50
2023-02-26T07:31:30.485Z,12.30
2023-02-26T07:33:57.695Z,13.70
2023-02-26T07:36:24.978Z,12.10
2023-02-26T07:38:52.057Z,23.15
2023-02-26T07:41:19.015Z,12.57
2023-02-26T07:43:46.789Z,19.08
2023-02-26T07:46:14.099Z,18.80
2023-02-26T07:48:41.552Z,14.48
2023-02-26T07:51:08.957Z,16.75
2023-02-26T07:53:35.977Z,12.38
2023-02-26T07:56:03.530Z,7.70
2023-02-26T07:58:31.865Z,13.70
2023-02-26T08:00:59.003Z,16.00
2023-02-26T08:03:26.076Z,15.85
2023-02-26T08:05:52.988Z,14.82
2023-02-26T08:08:19.894Z,16.17
2023-02-26T08:10:46.817Z,11.68
2023-02-26T08:13:13.709Z,13.95
2023-02-26T08:15:44.066Z,13.10
2023-02-26T08:18:11.795Z,16.77
2023-02-26T08:20:38.696Z,16.30
2023-02-26T08:23:05.771Z,14.52
2023-02-26T08:25:32.693Z,15.20
2023-02-26T08:27:59.722Z,16.98
2023-02-26T08:30:27.031Z,15.05
2023-02-26T08:32:54.080Z,18.02
2023-02-26T08:35:21.649Z,14.50
2023-02-26T08:37:48.688Z,21.60
2023-02-26T08:40:15.894Z,14.63
2023-02-26T08:42:42.821Z,15.23
2023-02-26T08:45:10.264Z,8.25
2023-02-26T08:47:42.358Z,15.45
2023-02-26T08:50:15.786Z,23.42
2023-02-26T08:52:42.701Z,11.77
2023-02-26T08:55:10.859Z,12.93
2023-02-26T08:57:37.723Z,16.35
2023-02-26T09:00:10.616Z,13.93
2023-02-26T09:02:38.707Z,24.38
2023-02-26T09:05:06.065Z,18.75
2023-02-26T09:07:33.064Z,21.52
2023-02-26T09:10:00.164Z,15.93
2023-02-26T09:12:27.188Z,15.73
2023-02-26T09:14:54.148Z,17.80
2023-02-26T09:17:21.146Z,15.35
2023-02-26T09:19:48.326Z,15.02
2023-02-26T09:22:15.218Z,10.55
2023-02-26T09:24:42.226Z,16.83
2023-02-26T09:27:09.532Z,17.08
2023-02-26T09:29:36.576Z,12.48
2023-02-26T09:32:05.432Z,21.42
2023-02-26T09:34:32.370Z,17.40
2023-02-26T09:36:59.348Z,23.60
2023-02-26T09:39:26.385Z,23.67
2023-02-26T09:41:59.378Z,24.05
2023-02-26T09:44:32.989Z,21.70
2023-02-26T09:47:06.780Z,23.30
2023-02-26T09:50:02.276Z,17.25
2023-02-26T09:52:47.285Z,20.48
2023-02-26T09:55:26.378Z,16.13
2023-02-26T09:57:59.585Z,19.15
2023-02-26T10:00:44.571Z,21.42
2023-02-26T10:03:34.657Z,15.35
2023-02-26T10:06:22.631Z,11.40
2023-02-26T10:09:11.174Z,15.23
2023-02-26T10:12:05.705Z,8.88
2023-02-26T10:14:36.487Z,11.85
2023-02-26T10:17:19.115Z,12.60
2023-02-26T10:19:51.740Z,15.65
2023-02-26T10:22:48.312Z,17.20
2023-02-26T10:25:23.083Z,13.48
2023-02-26T10:28:01.772Z,16.08
2023-02-26T10:30:41.533Z,19.58
2023-02-26T10:33:27.994Z,12.93
2023-02-26T10:36:02.095Z,17.95
2023-02-26T10:38:32.073Z,12.30
2023-02-26T10:41:04.863Z,16.27
2023-02-26T10:43:49.436Z,16.90
2023-02-26T10:46:33.114Z,12.98
2023-02-26T10:49:26.016Z,16.48
2023-02-26T10:51:55.155Z,14.18
2023-02-26T10:54:35.424Z,15.10
2023-02-26T10:57:02.250Z,15.43
2023-02-26T10:59:29.232Z,13.40
2023-02-26T11:01:57.495Z,18.45
2023-02-26T11:04:27.531Z,12.07
2023-02-26T11:07:00.722Z,10.00
2023-02-26T11:09:33.823Z,12.45
2023-02-26T11:12:09.842Z,10.82
2023-02-26T11:14:37.445Z,14.68
2023-02-26T11:17:15.789Z,14.88
2023-02-26T11:19:50.634Z,12.93
2023-02-26T11:22:18.747Z,14.23
2023-02-26T11:24:49.052Z,9.73
2023-02-26T11:27:20.568Z,12.02
2023-02-26T11:29:55.849Z,14.45
2023-02-26T11:32:31.421Z,13.52
2023-02-26T11:34:58.388Z,12.93
2023-02-26T11:37:30.752Z,7.38
2023-02-26T11:40:00.717Z,15.35
2023-02-26T11:42:28.288Z,11.98
2023-02-26T11:44:57.726Z,14.77
2023-02-26T11:47:29.685Z,17.58
2023-02-26T11:50:04.733Z,11.93
2023-02-26T11:52:40.697Z,14.80
2023-02-26T11:55:23.235Z,9.88
2023-02-26T11:57:55.156Z,14.30
2023-02-26T12:00:31.799Z,6.93
2023-02-26T12:03:15.753Z,12.98
2023-02-26T12:05:42.771Z,14.60
2023-02-26T12:08:41.308Z,13.23
2023-02-26T12:11:31.425Z,11.90
2023-02-26T12:14:22.429Z,19.25
2023-02-26T12:17:11.561Z,10.25
2023-02-26T12:19:55.222Z,9.88
2023-02-26T12:22:39.469Z,11.38
2023-02-26T12:25:09.238Z,14.73
2023-02-26T12:27:42.184Z,10.52
2023-02-26T12:30:21.162Z,17.63
2023-02-26T12:33:01.048Z,15.95
2023-02-26T12:35:45.475Z,15.05
2023-02-26T12:38:29.969Z,14.40
2023-02-26T12:41:40.613Z,13.30
2023-02-26T12:44:32.186Z,14.77
2023-02-26T12:47:17.665Z,13.18
2023-02-26T12:50:07.273Z,13.60
2023-02-26T12:52:36.992Z,9.35
2023-02-26T12:55:34.150Z,11.68
2023-02-26T12:58:28.721Z,16.52
2023-02-26T13:01:08.297Z,15.35
2023-02-26T13:03:48.311Z,15.45
2023-02-26T13:06:40.681Z,18.15
2023-02-26T13:09:22.498Z,14.98
2023-02-26T13:12:04.134Z,20.55
2023-02-26T13:14:45.688Z,10.55
2023-02-26T13:17:24.591Z,17.50
2023-02-26T13:19:56.630Z,11.38
2023-02-26T13:22:34.123Z,13.63
2023-02-26T13:25:18.292Z,7.75
2023-02-26T13:27:46.581Z,13.35
2023-02-26T13:30:29.679Z,16.20
2023-02-26T13:32:59.307Z,15.43
2023-02-26T13:35:33.714Z,13.38
2023-02-26T13:38:10.441Z,14.50
2023-02-26T13:41:06.695Z,10.55
2023-02-26T13:44:02.878Z,13.02
2023-02-26T13:47:07.408Z,13.88
2023-02-26T13:49:55.517Z,12.40
2023-02-26T13:52:25.800Z,16.15
2023-02-26T13:54:53.853Z,14.25
2023-02-26T13:57:34.448Z,14.67
2023-02-26T14:00:12.873Z,20.73
2023-02-26T14:02:52.103Z,11.75
2023-02-26T14:05:45.557Z,13.77
2023-02-26T14:08:41.625Z,18.55
2023-02-26T14:11:39.626Z,17.02
2023-02-26T14:14:17.234Z,14.57
2023-02-26T14:16:49.462Z,21.63
2023-02-26T14:19:27.608Z,19.05
2023-02-26T14:22:02.328Z,26.83
2023-02-26T14:24:39.241Z,15.27
2023-02-26T14:27:12.348Z,17.98
2023-02-26T14:29:53.587Z,32.88
2023-02-26T14:32:47.582Z,16.15
2023-02-26T14:35:22.335Z,12.02
2023-02-26T14:38:03.246Z,14.10
2023-02-26T14:40:36.821Z,15.10
2023-02-26T14:43:06.051Z,20.30
2023-02-26T14:45:42.622Z,32.88
2023-02-26T14:48:16.630Z,13.77
2023-02-26T14:50:55.205Z,41.28
2023-02-26T14:53:52.751Z,19.20
2023-02-26T14:56:40.471Z,31.30
2023-02-26T14:59:19.460Z,17.58
2023-02-26T15:01:53.255Z,15.90
2023-02-26T15:04:54.189Z,20.60
2023-02-26T15:07:42.672Z,26.88
2023-02-26T15:10:47.823Z,19.15
2023-02-26T15:13:39.168Z,22.23
2023-02-26T15:16:08.946Z,20.13
2023-02-26T15:19:02.990Z,24.40
2023-02-26T15:21:42.078Z,23.23
2023-02-26T15:29:13.931Z,36.13
2023-02-26T15:31:53.252Z,24.80
2023-02-26T15:34:21.507Z,20.92
2023-02-26T15:36:53.399Z,13.13
2023-02-26T15:39:23.815Z,15.88
2023-02-26T15:41:54.366Z,15.27
2023-02-26T15:44:28.663Z,16.17
2023-02-26T15:47:01.535Z,15.45
2023-02-26T15:49:33.467Z,14.05
2023-02-26T15:52:02.939Z,16.80
2023-02-26T15:54:55.448Z,16.77
2023-02-26T15:57:24.439Z,18.73
2023-02-26T15:59:53.920Z,18.13
2023-02-26T16:02:26.908Z,12.35
2023-02-26T16:04:53.839Z,21.95
2023-02-26T16:07:21.107Z,15.60
2023-02-26T16:09:51.643Z,20.38
2023-02-26T16:12:32.294Z,32.58
2023-02-26T16:15:01.797Z,18.40
2023-02-26T16:17:33.446Z,26.10
2023-02-26T16:20:06.027Z,24.92
2023-02-26T16:22:37.732Z,23.88
2023-02-26T16:25:25.561Z,29.48
2023-02-26T16:28:00.951Z,20.35
2023-02-26T16:30:33.939Z,27.77
2023-02-26T16:33:04.578Z,27.92
2023-02-26T16:35:39.186Z,28.13
2023-02-26T16:38:16.620Z,25.73
2023-02-26T16:40:45.080Z,24.30
2023-02-26T16:43:24.052Z,24.98
2023-02-26T16:45:56.132Z,19.90
2023-02-26T16:48:31.715Z,30.80
2023-02-26T16:51:06.871Z,22.70
2023-02-26T16:53:48.665Z,18.52
2023-02-26T16:56:23.135Z,21.23
2023-02-26T16:59:13.335Z,22.00
2023-02-26T17:01:52.122Z,20.52
2023-02-26T17:04:23.694Z,24.58
2023-02-26T17:06:52.283Z,28.63
2023-02-26T17:09:37.764Z,20.10
2023-02-26T17:12:29.022Z,20.00
2023-02-26T17:14:58.569Z,25.75
2023-02-26T17:17:25.928Z,26.65
2023-02-26T17:19:53.291Z,22.17
2023-02-26T17:22:26.670Z,23.67
2023-02-26T17:24:53.849Z,21.15
2023-02-26T17:27:33.238Z,16.63
2023-02-26T17:30:02.193Z,31.17
2023-02-26T17:32:31.378Z,22.55
2023-02-26T17:34:59.172Z,33.30
2023-02-26T17:37:31.392Z,30.48
2023-02-26T17:39:59.636Z,25.20
2023-02-26T17:42:26.842Z,28.05
2023-02-26T17:44:55.333Z,26.70
2023-02-26T17:47:25.107Z,36.80
2023-02-26T17:49:54.152Z,25.70
2023-02-26T17:52:21.418Z,19.83
2023-02-26T17:54:48.983Z,17.23
2023-02-26T17:57:19.099Z,22.08
2023-02-26T17:59:46.855Z,21.27
2023-02-26T18:02:25.550Z,25.98
2023-02-26T18:04:52.870Z,19.73
2023-02-26T18:07:27.426Z,26.33
2023-02-26T18:09:54.370Z,27.05
2023-02-26T18:12:22.493Z,17.25
2023-02-26T18:14:50.218Z,19.67
2023-02-26T18:17:27.899Z,21.02
2023-02-26T18:19:55.240Z,22.33
2023-02-26T18:22:27.752Z,30.40
2023-02-26T18:24:55.701Z,20.70
2023-02-26T18:27:25.977Z,20.00
2023-02-26T18:29:54.331Z,27.10
2023-02-26T18:32:25.459Z,27.65
2023-02-26T18:34:53.117Z,19.50
2023-02-26T18:37:26.416Z,23.92
2023-02-26T18:39:53.816Z,21.25
2023-02-26T18:42:24.167Z,26.50
2023-02-26T18:44:52.002Z,21.33
2023-02-26T18:47:20.878Z,18.48
2023-02-26T18:49:49.880Z,23.27
2023-02-26T18:52:17.640Z,21.20
2023-02-26T18:54:45.631Z,21.75
2023-02-26T18:57:13.037Z,26.27
2023-02-26T18:59:40.566Z,23.33
2023-02-26T19:02:10.796Z,18.48
2023-02-26T19:04:38.250Z,19.90
2023-02-26T19:07:05.843Z,14.98
2023-02-26T19:09:35.347Z,18.20
2023-02-26T19:12:06.229Z,19.33
2023-02-26T19:14:33.846Z,23.83
2023-02-26T19:17:01.423Z,20.90
2023-02-26T19:19:29.120Z,22.13
2023-02-26T19:21:58.052Z,23.10
2023-02-26T19:24:25.469Z,14.55
2023-02-26T19:26:52.964Z,20.85
2023-02-26T19:29:20.980Z,21.60
2023-02-26T19:31:48.580Z,20.83
2023-02-26T19:34:16.223Z,15.15
2023-02-26T19:36:48.537Z,20.35
2023-02-26T19:39:17.665Z,21.27
2023-02-26T19:41:46.398Z,20.55
2023-02-26T19:44:14.740Z,16.42
2023-02-26T19:46:42.415Z,18.42
2023-02-26T19:49:10.541Z,20.13
2023-02-26T19:51:38.959Z,27.67
2023-02-26T19:54:07.161Z,18.98
2023-02-26T19:56:35.154Z,15.93
2023-02-26T19:59:03.218Z,19.45
2023-02-26T20:01:31.010Z,22.45
2023-02-26T20:03:58.790Z,25.67
2023-02-26T20:06:26.348Z,22.80
2023-02-26T20:08:53.963Z,24.35
2023-02-26T20:11:21.463Z,32.15
2023-02-26T20:13:48.914Z,33.05
2023-02-26T20:16:16.707Z,38.95
2023-02-26T20:18:46.108Z,38.38
2023-02-26T20:21:14.247Z,27.45
2023-02-26T20:23:42.215Z,36.97
2023-02-26T20:26:12.440Z,43.17
2023-02-26T20:28:40.247Z,35.17
2023-02-26T20:31:08.027Z,38.22
2023-02-26T20:33:37.768Z,27.35
2023-02-26T20:36:06.758Z,27.00
2023-02-26T20:38:34.191Z,27.50
2023-02-26T20:41:01.599Z,26.92
2023-02-26T20:43:28.849Z,23.92
2023-02-26T20:45:56.815Z,41.63
2023-02-26T20:48:24.459Z,36.25
2023-02-26T20:50:53.802Z,25.70
2023-02-26T20:55:48.577Z,25.25
2023-02-26T20:58:15.839Z,22.80
2023-02-26T21:00:43.113Z,21.63
2023-02-26T21:03:10.318Z,19.27
2023-02-26T21:05:38.683Z,14.43
2023-02-26T21:08:05.934Z,18.80
2023-02-26T21:10:32.903Z,23.35
2023-02-26T21:13:00.037Z,22.40
2023-02-26T21:15:27.047Z,29.00
2023-02-26T21:17:54.224Z,29.38
2023-02-26T21:20:22.412Z,33.13
2023-02-26T21:22:49.841Z,21.70
2023-02-26T21:25:17.318Z,27.48
2023-02-26T21:27:44.341Z,26.55
2023-02-26T21:30:12.681Z,16.52
2023-02-26T21:32:40.222Z,25.00
2023-02-26T21:35:09.312Z,20.92
2023-02-26T21:37:36.241Z,21.48
2023-02-26T21:40:06.506Z,24.60
2023-02-26T21:42:33.721Z,27.30
2023-02-26T21:45:00.583Z,32.38
2023-02-26T21:47:27.632Z,30.98
2023-02-26T21:49:54.582Z,26.23
2023-02-26T21:52:21.505Z,28.92
2023-02-26T21:54:48.429Z,28.50
2023-02-26T21:57:15.294Z,29.95
2023-02-26T21:59:42.154Z,29.52
2023-02-26T22:02:11.841Z,31.88
2023-02-26T22:04:38.758Z,41.13
2023-02-26T22:07:08.751Z,28.80
2023-02-26T22:09:36.279Z,38.40
2023-02-26T22:12:03.520Z,36.42
2023-02-26T22:14:30.373Z,35.25
2023-02-26T22:16:57.259Z,35.85
2023-02-26T22:19:24.203Z,27.60
2023-02-26T22:21:51.134Z,27.52
2023-02-26T22:24:18.022Z,22.70
2023-02-26T22:26:47.081Z,23.33
2023-02-26T22:29:14.264Z,27.40
2023-02-26T22:31:41.585Z,22.33
2023-02-26T22:34:08.921Z,23.77
2023-02-26T22:36:36.479Z,25.63
2023-02-26T22:39:06.199Z,17.42
2023-02-26T22:41:35.096Z,18.10
2023-02-26T22:44:02.154Z,25.30
2023-02-26T22:46:29.011Z,26.77
2023-02-26T22:48:57.018Z,24.00
2023-02-26T22:51:24.794Z,20.90
2023-02-26T22:53:52.010Z,23.85
2023-02-26T22:56:18.894Z,19.45
2023-02-26T22:58:45.707Z,31.08
2023-02-26T23:01:12.650Z,25.02
2023-02-26T23:03:40.065Z,21.77
2023-02-26T23:06:07.702Z,18.27
2023-02-26T23:08:34.809Z,30.13
2023-02-26T23:11:02.715Z,26.10
2023-02-26T23:13:34.212Z,19.55
2023-02-26T23:16:03.349Z,22.20
2023-02-26T23:18:30.488Z,28.25
2023-02-26T23:20:57.465Z,22.08
2023-02-26T23:23:24.421Z,19.48
2023-02-26T23:25:51.344Z,22.67
2023-02-26T23:28:18.284Z,22.02
2023-02-26T23:30:45.397Z,21.80
2023-02-26T23:33:12.820Z,22.98
2023-02-26T23:35:40.265Z,23.50
2023-02-26T23:38:07.259Z,18.52
2023-02-26T23:40:34.170Z,23.70
2023-02-26T23:43:01.253Z,28.30
2023-02-26T23:45:28.247Z,19.75
2023-02-26T23:47:55.198Z,22.92
2023-02-26T23:50:23.073Z,27.60
2023-02-26T23:52:50.834Z,20.98
2023-02-26T23:55:17.956Z,16.17
2023-02-26T23:57:45.589Z,20.20
